Latest Weather Observations for Coonawarra

IDS60801

Issued at 11:31 pm CST Friday 4 September 2015 (issued every 30 minutes, with the page automatically refreshed every 10 minutes)

About weather observations | Map of weather stations | Latest weather observations for SA | Other Formats
Station Details ID: 026091 Name: COONAWARRA Lat: -37.29 Lon: 140.83 Height: 57.0 m
Data from the previous 72 hours. | See also: Recent months at Coonawarra
Date/Time
CST
Temp
°C
App
Temp
°C
Dew
Point
Rel
Hum
%
Delta-T
°C
Wind Press
QNH
hPa
Press
MSL
hPa
Rain
since 9 am
mm
Dir
 
Spd
km/h
Gust
km/h
Spd
kts
Gust
kts
04/11:30pm 4.7 3.2 3.2 90 0.6 CALM 0 0 0 0 1026.3 1026.3 0.0
04/11:00pm 5.4 4.1 4.0 91 0.6 CALM 0 0 0 0 1026.6 1026.6 0.0
04/10:30pm 6.1 4.9 4.5 89 0.7 CALM 0 0 0 0 1026.9 1026.9 0.0
04/10:00pm 6.8 5.6 4.5 85 1.0 CALM 0 0 0 0 1027.0 1027.0 0.0
04/09:30pm 7.3 5.8 4.8 84 1.1 SW 2 6 1 3 1026.9 1026.9 0.0
04/09:00pm 7.9 5.6 4.9 81 1.3 SSW 6 7 3 4 1026.8 1026.8 0.0
04/08:30pm 8.6 5.8 5.2 79 1.5 S 9 11 5 6 1026.8 1026.8 0.0
04/08:00pm 8.9 6.1 5.3 78 1.6 SSW 9 11 5 6 1026.5 1026.5 0.0
04/07:30pm 9.5 6.0 5.5 76 1.8 SSW 13 17 7 9 1026.5 1026.5 0.0
04/07:00pm 10.1 6.1 5.0 70 2.3 SSW 15 20 8 11 1026.4 1026.4 0.0
04/06:30pm 10.5 7.1 5.9 73 2.1 SSW 13 17 7 9 1026.2 1026.2 0.0
04/06:00pm 11.0 8.0 6.0 71 2.3 S 11 15 6 8 1026.0 1026.0 0.0
04/05:30pm 11.5 8.1 6.1 69 2.5 SSW 13 19 7 10 1025.8 1025.8 0.0
04/05:00pm 11.9 7.8 6.1 67 2.7 SW 17 24 9 13 1025.8 1025.8 0.0
04/04:30pm 12.5 8.2 5.1 60 3.4 SW 17 22 9 12 1025.6 1025.6 0.0
04/04:00pm 13.0 9.2 3.9 54 4.1 SSW 13 17 7 9 1025.5 1025.5 0.0
04/03:30pm 13.1 8.9 3.7 53 4.2 SW 15 19 8 10 1025.5 1025.5 0.0
04/03:00pm 13.2 9.3 3.6 52 4.3 SSW 13 19 7 10 1025.4 1025.4 0.0
04/02:30pm 13.1 8.5 3.7 53 4.2 SSW 17 19 9 10 1025.6 1025.6 0.0
04/02:00pm 13.4 9.5 3.3 50 4.5 SW 13 20 7 11 1025.6 1025.6 0.0
04/01:30pm 13.7 10.2 3.7 51 4.5 WSW 11 17 6 9 1025.8 1025.8 0.0
04/01:00pm 12.7 9.2 3.5 53 4.1 SSE 11 19 6 10 1026.0 1026.0 0.0
04/12:30pm 12.9 10.2 3.8 54 4.1 W 7 13 4 7 1026.5 1026.5 0.0
04/12:00pm 12.5 9.2 2.3 50 4.4 SW 9 17 5 9 1027.0 1027.0 0.0
04/11:30am 12.0 8.7 2.2 51 4.2 SW 9 17 5 9 1027.3 1027.3 0.0
04/11:00am 12.1 8.8 2.4 51 4.2 S 9 13 5 7 1027.6 1027.6 0.0
04/10:30am 11.4 7.7 2.6 54 3.8 SW 11 22 6 12 1028.1 1028.1 0.0
04/10:00am 11.2 7.9 2.3 54 3.8 WSW 9 15 5 8 1028.2 1028.2 0.0
04/09:30am 11.1 7.8 2.2 54 3.8 WSW 9 15 5 8 1028.2 1028.2 0.0
04/09:00am 10.2 7.7 4.6 68 2.5 WSW 7 11 4 6 1028.3 1028.3 0.4
04/08:30am 8.7 8.0 6.8 88 0.9 CALM 0 0 0 0 1028.2 1028.2 0.4
04/08:00am 7.5 6.7 6.6 94 0.4 CALM 0 0 0 0 1028.1 1028.1 0.4
04/07:30am 6.5 5.5 5.8 95 0.3 CALM 0 0 0 0 1027.9 1027.9 0.4
04/07:00am 5.9 4.9 5.4 97 0.2 CALM 0 0 0 0 1027.5 1027.5 0.4
04/06:30am 5.6 4.5 4.9 95 0.3 CALM 0 0 0 0 1027.2 1027.2 0.4
04/06:00am 5.4 4.2 4.7 95 0.3 CALM 0 0 0 0 1027.0 1027.0 0.4
04/05:30am 5.2 4.0 4.7 97 0.2 CALM 0 0 0 0 1026.7 1026.7 0.4
04/05:00am 4.9 3.7 4.4 97 0.2 CALM 0 0 0 0 1026.5 1026.5 0.4
04/04:30am 3.9 1.7 3.4 97 0.2 SSW 4 7 2 4 1026.1 1026.1 0.4
04/04:00am 3.5 2.0 3.0 97 0.2 CALM 0 0 0 0 1025.9 1025.9 0.4
04/03:30am 4.7 3.4 4.0 95 0.3 CALM 0 4 0 2 1025.8 1025.8 0.4
04/03:00am 5.6 2.7 4.7 94 0.4 SW 9 11 5 6 1025.7 1025.7 0.4
04/02:30am 6.3 3.9 5.4 94 0.4 SW 7 9 4 5 1025.8 1025.8 0.4
04/02:00am 7.2 5.0 6.1 93 0.5 S 7 9 4 5 1026.0 1026.0 0.4
04/01:30am 7.9 5.8 6.6 91 0.6 S 7 9 4 5 1026.0 1026.0 0.4
04/01:00am 8.3 6.2 6.8 90 0.7 SSE 7 9 4 5 1026.0 1026.0 0.4
04/12:30am 8.5 6.5 7.0 90 0.7 S 7 11 4 6 1025.9 1025.9 0.4
04/12:00am 8.5 6.1 7.2 91 0.6 SSW 9 11 5 6 1025.9 1025.9 0.4
 
Date/Time
CST
Temp
°C
App
Temp
°C
Dew
Point
Rel
Hum
%
Delta-T
°C
Wind Press
QNH
hPa
Press
MSL
hPa
Rain
since 9 am
mm
Dir
 
Spd
km/h
Gust
km/h
Spd
kts
Gust
kts
03/11:30pm 8.5 6.1 7.2 91 0.6 SSW 9 11 5 6 1025.9 1025.9 0.4
03/11:00pm 8.7 6.0 7.4 91 0.6 SSW 11 13 6 7 1025.8 1025.8 0.4
03/10:30pm 8.8 5.8 7.5 91 0.6 SSW 13 17 7 9 1025.7 1025.7 0.4
03/10:00pm 8.8 6.1 7.3 90 0.7 SSW 11 15 6 8 1025.6 1025.6 0.4
03/09:30pm 8.0 5.2 6.9 93 0.5 S 11 13 6 7 1025.4 1025.4 0.4
03/09:00pm 7.2 4.6 6.3 94 0.4 SSW 9 11 5 6 1025.2 1025.2 0.4
03/08:30pm 7.0 4.0 6.1 94 0.4 SSW 11 15 6 8 1025.0 1025.0 0.4
03/08:00pm 7.0 4.4 6.1 94 0.4 SSW 9 9 5 5 1024.5 1024.5 0.4
03/07:30pm 8.1 5.7 6.8 91 0.6 SSW 9 13 5 7 1024.3 1024.3 0.4
03/07:00pm 9.0 6.6 7.1 88 0.9 SSW 9 11 5 6 1024.1 1024.1 0.4
03/06:30pm 10.2 7.2 7.7 84 1.2 SSW 13 15 7 8 1023.7 1023.7 0.4
03/06:00pm 10.9 8.0 8.0 82 1.4 S 13 19 7 10 1023.0 1023.1 0.4
03/05:30pm 11.3 6.9 7.6 78 1.8 S 20 24 11 13 1022.8 1022.9 0.4
03/05:00pm 11.6 7.4 8.1 79 1.7 SSE 20 30 11 16 1022.3 1022.4 0.4
03/04:30pm 11.9 7.0 8.5 80 1.7 S 24 33 13 18 1021.7 1021.8 0.4
03/04:00pm 12.7 7.5 8.7 76 2.0 S 26 33 14 18 1021.4 1021.5 0.4
03/03:30pm 12.9 7.5 9.6 80 1.7 S 28 35 15 19 1021.1 1021.2 0.4
03/03:00pm 12.7 8.1 9.8 82 1.5 SSW 24 33 13 18 1020.7 1020.8 0.4
03/02:30pm 13.0 7.8 10.1 82 1.5 S 28 37 15 20 1020.2 1020.3 0.4
03/02:00pm 13.6 9.9 9.5 76 2.1 S 19 28 10 15 1019.9 1020.0 0.4
03/01:30pm 15.3 10.4 10.1 71 2.7 S 26 37 14 20 1019.5 1019.6 0.4
03/01:00pm 13.6 7.8 9.5 76 2.1 S 30 41 16 22 1019.4 1019.5 0.4
03/12:30pm 13.1 7.6 10.6 85 1.3 S 30 41 16 22 1019.4 1019.5 0.4
03/12:00pm 12.8 7.7 10.7 87 1.1 S 28 35 15 19 1019.2 1019.3 0.4
03/11:30am 14.4 10.2 9.8 74 2.4 S 22 28 12 15 1018.9 1019.0 0.2
03/11:00am 14.5 10.8 10.1 75 2.3 S 20 32 11 17 1018.6 1018.7 0.2
03/10:30am 13.7 10.4 10.8 83 1.5 S 19 24 10 13 1018.6 1018.7 0.2
03/10:00am 13.2 9.8 10.7 85 1.3 S 19 24 10 13 1018.6 1018.7 0.2
03/09:30am 12.4 9.4 10.5 88 1.0 S 17 24 9 13 1018.2 1018.3 0.2
03/09:00am 12.4 9.4 10.5 88 1.0 S 17 26 9 14 1017.7 1017.8 9.0
03/08:30am 12.0 9.0 10.6 91 0.7 S 17 24 9 13 1016.9 1017.0 9.0
03/08:00am 11.5 8.8 10.5 94 0.5 S 15 19 8 10 1016.3 1016.3 9.0
03/07:30am 11.0 8.6 10.2 95 0.4 S 13 19 7 10 1015.6 1015.6 9.0
03/07:00am 10.5 8.4 9.9 96 0.3 SSW 11 13 6 7 1014.8 1014.8 9.0
03/06:30am 10.2 8.1 9.6 96 0.3 S 11 13 6 7 1014.2 1014.2 9.0
03/06:00am 10.1 7.9 9.5 96 0.3 SSW 11 15 6 8 1013.5 1013.5 9.0
03/05:30am 10.2 7.7 9.6 96 0.3 SSW 13 17 7 9 1012.8 1012.8 9.0
03/05:00am 9.8 7.6 9.2 96 0.3 SSW 11 15 6 8 1012.1 1012.1 9.0
03/04:30am 9.5 7.2 8.9 96 0.3 SSW 11 13 6 7 1011.5 1011.5 9.0
03/04:00am 9.1 7.1 8.7 97 0.2 SSW 9 11 5 6 1011.0 1011.0 9.0
03/03:30am 9.5 7.2 8.9 96 0.3 S 11 17 6 9 1010.5 1010.5 9.0
03/03:00am 9.4 6.3 9.0 97 0.2 SSW 15 20 8 11 1010.1 1010.1 9.0
03/02:30am 9.0 5.9 8.8 99 0.1 SSW 15 19 8 10 1010.0 1010.0 9.0
03/02:00am 8.8 6.3 8.4 97 0.2 SSW 11 15 6 8 1009.9 1009.9 9.0
03/01:30am 8.4 5.8 7.8 96 0.3 SSW 11 15 6 8 1009.5 1009.5 9.0
03/01:00am 8.5 6.4 8.1 97 0.2 S 9 13 5 7 1009.5 1009.5 9.0
03/12:30am 8.6 6.9 8.2 97 0.2 SSE 7 11 4 6 1009.4 1009.4 9.0
03/12:00am 8.9 6.9 8.5 97 0.2 SSW 9 11 5 6 1009.3 1009.3 9.0
 
Date/Time
CST
Temp
°C
App
Temp
°C
Dew
Point
Rel
Hum
%
Delta-T
°C
Wind Press
QNH
hPa
Press
MSL
hPa
Rain
since 9 am
mm
Dir
 
Spd
km/h
Gust
km/h
Spd
kts
Gust
kts
02/11:30pm 9.0 6.5 8.4 96 0.3 SSW 11 15 6 8 1009.0 1009.0 9.0
02/11:00pm 8.9 6.4 8.3 96 0.3 SSW 11 15 6 8 1008.9 1008.9 9.0
02/10:30pm 9.2 6.4 8.6 96 0.3 SSW 13 17 7 9 1008.7 1008.7 9.0
02/10:00pm 9.4 7.0 8.8 96 0.3 S 11 15 6 8 1008.5 1008.5 9.0
02/09:30pm 9.4 7.4 8.8 96 0.3 S 9 11 5 6 1008.5 1008.5 8.6
02/09:00pm 9.4 7.0 8.8 96 0.3 S 11 13 6 7 1008.2 1008.2 8.0
02/08:30pm 9.5 7.5 8.7 95 0.4 S 9 9 5 5 1008.0 1008.0 7.2
02/08:00pm 9.4 7.4 8.8 96 0.3 S 9 11 5 6 1007.7 1007.7 7.0
02/07:30pm 9.6 8.1 9.0 96 0.3 SSE 7 11 4 6 1007.4 1007.4 6.6
02/07:00pm 9.7 8.1 8.9 95 0.4 SSE 7 9 4 5 1007.0 1007.0 5.6
02/06:30pm 9.8 8.2 8.8 93 0.5 SE 7 9 4 5 1006.5 1006.5 5.2
02/06:00pm 10.0 8.5 9.0 93 0.5 ENE 7 9 4 5 1006.2 1006.2 4.8
02/05:30pm 10.1 8.5 8.9 92 0.6 ENE 7 9 4 5 1005.7 1005.7 4.4
02/05:00pm 10.3 8.8 9.1 92 0.6 NNE 7 11 4 6 1005.6 1005.6 4.2
02/04:30pm 10.6 9.2 9.4 92 0.6 NNE 7 9 4 5 1005.4 1005.4 3.8
02/04:00pm 10.7 9.2 9.1 90 0.8 ENE 7 9 4 5 1005.0 1005.1 3.8
02/03:30pm 10.8 9.3 9.2 90 0.8 N 7 9 4 5 1004.9 1005.0 3.8
02/03:00pm 10.7 7.5 8.5 86 1.1 NNW 15 19 8 10 1004.5 1004.6 3.6
02/02:30pm 10.8 7.0 9.0 89 0.9 NNW 19 24 10 13 1004.4 1004.5 3.6
02/02:00pm 10.4 7.0 9.0 91 0.7 ENE 17 24 9 13 1003.6 1003.7 3.6
02/01:30pm 10.3 5.2 9.1 92 0.6 ENE 26 32 14 17 1004.1 1004.2 3.4
02/01:00pm 10.4 5.6 8.8 90 0.8 NE 24 37 13 20 1004.8 1004.9 2.8
02/12:30pm 10.4 5.6 9.0 91 0.7 NE 24 37 13 20 1005.0 1005.1 2.8
02/12:00pm 10.4 6.7 9.4 93 0.5 NE 19 24 10 13 1006.3 1006.3 2.6
02/11:30am 10.2 6.4 9.0 92 0.6 NNE 19 26 10 14 1007.5 1007.5 1.6
02/11:00am 10.7 6.8 8.7 87 1.0 NNE 19 28 10 15 1007.5 1007.5 0.2
02/10:30am 10.9 6.7 8.3 84 1.3 NNE 20 30 11 16 1007.2 1007.2 0.0
02/10:00am 10.9 6.8 8.5 85 1.2 NE 20 28 11 15 1006.7 1006.7 0.0
02/09:30am 10.4 6.2 8.4 87 1.0 NE 20 30 11 16 1006.7 1006.7 0.0
02/09:00am 10.3 6.0 7.8 84 1.2 NE 20 28 11 15 1007.2 1007.2 0.6
02/08:30am 10.5 6.4 7.8 83 1.3 NE 19 26 10 14 1007.2 1007.2 0.6
02/08:00am 10.1 7.6 8.3 88 0.9 NNE 11 20 6 11 1007.8 1007.8 0.6
02/07:30am 10.0 7.0 7.9 87 1.0 N 13 17 7 9 1007.9 1007.9 0.4
02/07:00am 10.5 6.4 6.2 75 2.0 N 17 28 9 15 1007.9 1007.9 0.4
02/06:30am 11.6 7.2 4.8 63 3.1 N 17 20 9 11 1007.2 1007.2 0.0
02/06:00am 12.5 8.6 3.3 53 4.1 NE 13 20 7 11 1006.6 1006.6 0.0
02/05:30am 12.6 7.9 2.9 51 4.3 NE 17 20 9 11 1006.7 1006.7 0.0
02/05:00am 12.4 8.5 3.2 53 4.1 NE 13 17 7 9 1006.8 1006.8 0.0
02/04:30am 12.4 7.8 3.7 55 3.9 NE 17 20 9 11 1007.0 1007.0 0.0
02/04:00am 13.2 8.5 2.9 49 4.6 NNE 17 22 9 12 1007.2 1007.2 0.0
02/03:30am 12.8 8.4 2.6 50 4.5 N 15 20 8 11 1007.6 1007.6 0.0
02/03:00am 13.3 7.8 2.1 46 4.9 NNE 20 26 11 14 1007.9 1007.9 0.0
02/02:30am 13.0 7.8 2.3 48 4.7 NE 19 24 10 13 1008.0 1008.0 0.0
02/02:00am 13.2 7.5 2.6 48 4.7 NE 22 32 12 17 1008.1 1008.1 0.0
02/01:30am 13.0 8.3 2.9 50 4.5 NE 17 20 9 11 1008.3 1008.3 0.0
02/01:00am 13.2 8.1 3.1 50 4.5 NE 19 26 10 14 1008.6 1008.6 0.0
02/12:30am 13.3 8.2 3.3 50 4.5 NE 19 24 10 13 1008.7 1008.7 0.0
02/12:00am 13.6 8.9 3.4 50 4.6 NE 17 24 9 13 1008.8 1008.8 0.0

Other Formats:

Comma delimited format used in spreadsheet applications
http://www.bom.gov.au/fwo/IDS60801/IDS60801.94817.axf

JavaScript Object Notation format (JSON) in row-major order
http://www.bom.gov.au/fwo/IDS60801/IDS60801.94817.json